Villa Angelina, Puerto Rico
Current Conditions -  °F | °C
As of 4:07 AM on Thursday 29 Jan 2015 (Local Time) from TJNR Reporting Station
Broken Clouds Broken Clouds  
Wind Chill: 75°   Ceiling: 7000
Heat Index: 75°   Visibility: 10mi
Dew Point: 72°   Wind: 6mph
Humidity: 90%   Direction: 70°ENE
Pressure: 29.97"   Gusts: NA
Location:  18.3744°N, 65.7168°W
Report Text: TJNR 290807Z AUTO 07005KT 10SM FEW022 SCT029 BKN070 24/22 A2997 RMK AO2 T02390222 $
Loading
Personal Weather Stations






























Interactive Weather Map New forecast layout! Learn more

10-Day Weather Forecast

Advertisements
Track Severe Weather on mobile